createdAt,value
2018-02-16T00:01:31.548Z,3.13
2018-02-16T00:03:59.851Z,3.17
2018-02-16T00:06:28.152Z,3.70
2018-02-16T00:08:56.516Z,4.07
2018-02-16T00:11:24.810Z,3.47
2018-02-16T00:13:53.127Z,3.63
2018-02-16T00:16:21.467Z,3.50
2018-02-16T00:18:49.782Z,3.10
2018-02-16T00:21:18.082Z,4.73
2018-02-16T00:23:47.142Z,4.20
2018-02-16T00:26:15.502Z,3.37
2018-02-16T00:28:43.794Z,3.57
2018-02-16T00:31:12.110Z,3.33
2018-02-16T00:33:41.232Z,4.30
2018-02-16T00:36:10.318Z,3.63
2018-02-16T00:38:39.386Z,3.53
2018-02-16T00:41:07.744Z,3.70
2018-02-16T00:43:36.050Z,4.00
2018-02-16T00:46:04.382Z,3.70
2018-02-16T00:48:33.454Z,4.57
2018-02-16T00:51:01.830Z,4.67
2018-02-16T00:53:30.142Z,4.57
2018-02-16T00:55:59.204Z,4.27
2018-02-16T00:58:27.510Z,4.13
2018-02-16T01:00:56.594Z,4.07
2018-02-16T01:03:24.941Z,4.70
2018-02-16T01:05:53.238Z,4.80
2018-02-16T01:08:21.592Z,4.10
2018-02-16T01:10:50.674Z,3.77
2018-02-16T01:13:19.764Z,3.97
2018-02-16T01:15:48.829Z,4.00
2018-02-16T01:18:17.136Z,3.60
2018-02-16T01:20:45.448Z,3.90
2018-02-16T01:23:13.758Z,4.33
2018-02-16T01:25:42.052Z,3.80
2018-02-16T01:28:10.346Z,5.03
2018-02-16T01:30:38.660Z,5.27
2018-02-16T01:33:07.758Z,4.80
2018-02-16T01:35:36.843Z,4.30
2018-02-16T01:38:05.914Z,4.17
2018-02-16T01:40:34.208Z,3.80
2018-02-16T01:43:02.539Z,3.60
2018-02-16T01:45:31.548Z,3.87
2018-02-16T01:47:59.866Z,3.97
2018-02-16T01:50:28.282Z,3.47
2018-02-16T01:52:57.368Z,4.00
2018-02-16T01:55:25.697Z,4.03
2018-02-16T01:57:54.070Z,3.83
2018-02-16T02:00:22.376Z,4.07
2018-02-16T02:02:50.673Z,3.13
2018-02-16T02:05:18.996Z,4.13
2018-02-16T02:07:47.288Z,4.30
2018-02-16T02:10:15.712Z,3.00
2018-02-16T02:12:44.834Z,4.13
2018-02-16T02:15:13.168Z,3.60
2018-02-16T02:17:41.466Z,4.83
2018-02-16T02:20:09.934Z,3.57
2018-02-16T02:22:38.237Z,3.47
2018-02-16T02:25:06.592Z,3.53
2018-02-16T02:27:34.922Z,3.87
2018-02-16T02:30:03.228Z,4.00
2018-02-16T02:32:32.322Z,3.20
2018-02-16T02:35:01.424Z,3.53
2018-02-16T02:37:30.492Z,3.93
2018-02-16T02:39:58.810Z,3.13
2018-02-16T02:42:27.874Z,3.13
2018-02-16T02:44:56.245Z,3.10
2018-02-16T02:47:24.646Z,3.07
2018-02-16T02:49:52.982Z,2.70
2018-02-16T02:52:21.287Z,2.73
2018-02-16T02:54:50.215Z,3.10
2018-02-16T02:57:18.532Z,3.00
2018-02-16T02:59:46.837Z,3.10
2018-02-16T03:02:15.139Z,2.80
2018-02-16T03:04:43.446Z,2.47
2018-02-16T03:07:12.522Z,2.30
2018-02-16T03:09:40.821Z,3.33
2018-02-16T03:12:09.913Z,2.53
2018-02-16T03:14:38.204Z,3.10
2018-02-16T03:17:07.282Z,3.43
2018-02-16T03:19:35.607Z,3.10
2018-02-16T03:22:04.771Z,2.67
2018-02-16T03:24:33.085Z,3.10
2018-02-16T03:27:02.182Z,2.40
2018-02-16T03:29:31.301Z,2.70
2018-02-16T03:31:59.608Z,2.20
2018-02-16T03:34:27.926Z,3.10
2018-02-16T03:36:57.075Z,3.17
2018-02-16T03:39:25.607Z,3.00
2018-02-16T03:41:53.908Z,2.83
2018-02-16T03:44:22.987Z,2.53
2018-02-16T03:46:51.306Z,2.83
2018-02-16T03:49:19.646Z,2.40
2018-02-16T03:51:48.485Z,2.73
2018-02-16T03:54:16.804Z,3.27
2018-02-16T03:56:45.118Z,2.63
2018-02-16T03:59:13.432Z,3.03
2018-02-16T04:01:41.756Z,2.63
2018-02-16T04:04:10.058Z,3.03
2018-02-16T04:06:38.384Z,3.93
2018-02-16T04:09:07.062Z,2.90
2018-02-16T04:11:36.148Z,2.57
2018-02-16T04:14:04.498Z,3.30
2018-02-16T04:16:32.807Z,2.50
2018-02-16T04:19:02.114Z,2.60
2018-02-16T04:21:31.176Z,2.80
2018-02-16T04:23:59.542Z,3.20
2018-02-16T04:26:27.861Z,3.53
2018-02-16T04:28:56.958Z,2.40
2018-02-16T04:31:25.412Z,2.90
2018-02-16T04:33:53.748Z,3.10
2018-02-16T04:36:22.822Z,3.00
2018-02-16T04:38:51.127Z,3.13
2018-02-16T04:41:20.459Z,2.90
2018-02-16T04:43:49.597Z,3.27
2018-02-16T04:46:17.917Z,2.90
2018-02-16T04:48:46.975Z,3.23
2018-02-16T04:51:15.438Z,3.50
2018-02-16T04:53:43.747Z,2.50
2018-02-16T04:56:12.056Z,2.53
2018-02-16T04:58:41.131Z,2.53
2018-02-16T05:01:09.465Z,3.03
2018-02-16T05:03:37.781Z,3.20
2018-02-16T05:06:06.081Z,3.50
2018-02-16T05:08:34.423Z,2.83
2018-02-16T05:11:02.763Z,2.80
2018-02-16T05:13:31.833Z,2.80
2018-02-16T05:16:00.159Z,3.67
2018-02-16T05:18:29.247Z,2.40
2018-02-16T05:20:59.027Z,3.00
2018-02-16T05:23:27.349Z,2.47
2018-02-16T05:25:56.459Z,2.90
2018-02-16T05:28:24.794Z,3.10
2018-02-16T05:30:53.133Z,2.73
2018-02-16T05:33:21.470Z,3.20
2018-02-16T05:35:49.769Z,2.97
2018-02-16T05:38:18.077Z,3.33
2018-02-16T05:40:46.371Z,3.63
2018-02-16T05:43:14.664Z,3.10
2018-02-16T05:45:42.991Z,3.10
2018-02-16T05:48:11.301Z,2.40
2018-02-16T05:50:39.595Z,3.27
2018-02-16T05:53:07.903Z,4.13
2018-02-16T05:55:36.234Z,2.73
2018-02-16T05:58:06.137Z,2.80
2018-02-16T06:00:34.425Z,2.50
2018-02-16T06:03:03.525Z,2.80
2018-02-16T06:05:32.619Z,2.80
2018-02-16T06:08:01.693Z,3.20
2018-02-16T06:10:29.990Z,2.50
2018-02-16T06:12:58.297Z,4.10
2018-02-16T06:15:27.401Z,3.50
2018-02-16T06:17:55.728Z,2.67
2018-02-16T06:20:24.045Z,2.40
2018-02-16T06:22:52.343Z,3.23
2018-02-16T06:25:21.415Z,3.63
2018-02-16T06:27:50.491Z,3.23
2018-02-16T06:30:18.797Z,2.90
2018-02-16T06:32:47.913Z,3.10
2018-02-16T06:35:16.979Z,2.90
2018-02-16T06:37:46.725Z,3.17
2018-02-16T06:40:15.863Z,3.33
2018-02-16T06:42:44.157Z,3.00
2018-02-16T06:45:12.476Z,3.40
2018-02-16T06:47:41.587Z,2.70
2018-02-16T06:50:10.657Z,3.97
2018-02-16T06:52:38.963Z,3.40
2018-02-16T06:55:08.055Z,2.90
2018-02-16T06:57:36.511Z,3.00
2018-02-16T07:00:04.827Z,3.00
2018-02-16T07:02:33.891Z,3.80
2018-02-16T07:05:02.203Z,2.83
2018-02-16T07:07:31.321Z,2.40
2018-02-16T07:09:59.581Z,3.27
2018-02-16T07:12:28.668Z,3.70
2018-02-16T07:14:57.871Z,2.50
2018-02-16T07:17:26.191Z,4.43
2018-02-16T07:19:54.501Z,3.33
2018-02-16T07:22:22.823Z,3.17
2018-02-16T07:24:51.883Z,3.73
2018-02-16T07:27:20.203Z,2.80
2018-02-16T07:29:48.624Z,2.77
2018-02-16T07:32:16.933Z,4.80
2018-02-16T07:34:45.253Z,3.20
2018-02-16T07:37:14.315Z,2.50
2018-02-16T07:39:42.615Z,3.67
2018-02-16T07:42:10.915Z,4.10
2018-02-16T07:44:39.216Z,3.63
2018-02-16T07:47:07.547Z,3.67
2018-02-16T07:49:35.835Z,3.50
2018-02-16T07:52:04.162Z,4.23
2018-02-16T07:54:33.857Z,3.20
2018-02-16T07:57:02.946Z,2.93
2018-02-16T07:59:32.757Z,4.67
2018-02-16T08:02:01.059Z,2.93
2018-02-16T08:04:30.171Z,3.60
2018-02-16T08:06:59.255Z,3.70
2018-02-16T08:09:28.321Z,2.90
2018-02-16T08:11:56.656Z,3.10
2018-02-16T08:14:25.749Z,4.13
2018-02-16T08:16:54.856Z,4.00
2018-02-16T08:19:23.185Z,3.27
2018-02-16T08:21:51.532Z,2.80
2018-02-16T08:24:19.866Z,3.03
2018-02-16T08:26:48.178Z,3.70
2018-02-16T08:29:17.473Z,3.43
2018-02-16T08:31:46.551Z,3.40
2018-02-16T08:34:14.902Z,4.60
2018-02-16T08:36:43.236Z,3.27
2018-02-16T08:39:12.303Z,3.00
2018-02-16T08:41:40.641Z,3.23
2018-02-16T08:44:08.950Z,4.27
2018-02-16T08:46:37.255Z,3.60
2018-02-16T08:49:05.555Z,3.23
2018-02-16T08:51:34.653Z,3.43
2018-02-16T08:54:02.963Z,3.67
2018-02-16T08:56:31.259Z,3.30
2018-02-16T08:58:59.559Z,3.60
2018-02-16T09:01:27.853Z,3.23
2018-02-16T09:03:56.169Z,3.00
2018-02-16T09:06:25.330Z,3.40
2018-02-16T09:08:53.641Z,3.80
2018-02-16T09:11:21.955Z,2.83
2018-02-16T09:13:50.246Z,3.30
2018-02-16T09:16:19.407Z,3.63
2018-02-16T09:18:47.833Z,2.67
2018-02-16T09:21:16.133Z,3.40
2018-02-16T09:23:44.436Z,2.67
2018-02-16T09:26:14.261Z,3.60
2018-02-16T09:28:42.688Z,3.70
2018-02-16T09:31:11.028Z,3.20
2018-02-16T09:33:40.299Z,2.63
2018-02-16T09:36:09.167Z,3.13
2018-02-16T09:38:38.402Z,4.17
2018-02-16T09:41:06.811Z,3.00
2018-02-16T09:43:35.905Z,3.40
2018-02-16T09:46:05.009Z,2.50
2018-02-16T09:48:34.092Z,3.20
2018-02-16T09:51:02.404Z,3.17
2018-02-16T09:53:31.489Z,3.43
2018-02-16T09:56:00.545Z,3.30
2018-02-16T09:58:28.859Z,3.10
2018-02-16T10:00:57.145Z,3.60
2018-02-16T10:03:25.463Z,2.47
2018-02-16T10:05:53.759Z,2.60
2018-02-16T10:08:22.072Z,3.27
2018-02-16T10:10:50.407Z,3.20
2018-02-16T10:13:19.485Z,2.63
2018-02-16T10:15:47.832Z,2.80
2018-02-16T10:18:16.117Z,2.40
2018-02-16T10:20:44.403Z,2.20
2018-02-16T10:23:12.701Z,2.80
2018-02-16T10:25:41.010Z,1.90
2018-02-16T10:28:10.105Z,2.90
2018-02-16T10:30:39.190Z,3.50
2018-02-16T10:33:07.491Z,3.67
2018-02-16T10:35:36.567Z,3.23
2018-02-16T10:38:04.881Z,3.13
2018-02-16T10:40:33.180Z,2.80
2018-02-16T10:43:01.525Z,2.70
2018-02-16T10:45:30.665Z,2.50
2018-02-16T10:47:58.991Z,2.30
2018-02-16T10:50:28.808Z,2.57
2018-02-16T10:52:58.620Z,2.50
2018-02-16T10:55:28.442Z,2.40
2018-02-16T10:57:56.763Z,2.67
2018-02-16T11:00:30.598Z,4.50
2018-02-16T11:03:04.386Z,3.33
2018-02-16T11:05:45.150Z,4.03
2018-02-16T11:08:18.963Z,2.50
2018-02-16T11:10:47.317Z,2.07
2018-02-16T11:13:16.406Z,2.10
2018-02-16T11:15:45.478Z,2.90
2018-02-16T11:18:13.795Z,2.80
2018-02-16T11:20:42.856Z,2.87
2018-02-16T11:23:11.168Z,2.53
2018-02-16T11:25:40.253Z,2.50
2018-02-16T11:28:08.546Z,2.57
2018-02-16T11:30:37.616Z,2.17
2018-02-16T11:33:05.909Z,2.87
2018-02-16T11:35:34.225Z,2.90
2018-02-16T11:38:02.518Z,3.40
2018-02-16T11:40:30.816Z,2.73
2018-02-16T11:42:59.124Z,2.70
2018-02-16T11:45:27.467Z,2.17
2018-02-16T11:47:55.760Z,2.57
2018-02-16T11:50:24.056Z,2.63
2018-02-16T11:52:52.360Z,3.10
2018-02-16T11:55:20.673Z,2.60
2018-02-16T11:57:48.977Z,2.60
2018-02-16T12:00:17.295Z,2.50
2018-02-16T12:02:45.837Z,3.03
2018-02-16T12:05:14.134Z,3.03
2018-02-16T12:07:42.468Z,3.47
2018-02-16T12:10:11.536Z,2.50
2018-02-16T12:12:39.854Z,2.80
2018-02-16T12:15:08.934Z,2.63
2018-02-16T12:17:37.292Z,3.30
2018-02-16T12:20:05.591Z,2.50
2018-02-16T12:22:33.918Z,2.80
2018-02-16T12:25:02.212Z,2.70
2018-02-16T12:27:30.526Z,2.40
2018-02-16T12:29:58.832Z,3.03
2018-02-16T12:32:27.959Z,2.80
2018-02-16T12:34:56.262Z,3.47
2018-02-16T12:37:24.680Z,2.73
2018-02-16T12:39:52.975Z,3.17
2018-02-16T12:42:21.357Z,2.30
2018-02-16T12:44:49.655Z,3.07
2018-02-16T12:47:18.724Z,3.70
2018-02-16T12:49:47.852Z,2.93
2018-02-16T12:52:16.955Z,2.80
2018-02-16T12:54:46.026Z,3.30
2018-02-16T12:57:15.108Z,3.00
2018-02-16T12:59:43.432Z,4.33
2018-02-16T13:02:11.760Z,3.50
2018-02-16T13:04:40.052Z,3.47
2018-02-16T13:07:08.348Z,2.87
2018-02-16T13:09:36.644Z,3.10
2018-02-16T13:12:05.702Z,3.80
2018-02-16T13:14:34.048Z,2.90
2018-02-16T13:17:02.449Z,4.10
2018-02-16T13:19:30.779Z,3.53
2018-02-16T13:21:59.052Z,3.43
2018-02-16T13:24:27.368Z,4.67
2018-02-16T13:26:56.463Z,3.43
2018-02-16T13:29:25.556Z,3.10
2018-02-16T13:31:53.878Z,2.40
2018-02-16T13:34:22.196Z,2.70
2018-02-16T13:36:50.509Z,5.20
2018-02-16T13:39:19.583Z,3.57
2018-02-16T13:41:47.925Z,2.97
2018-02-16T13:44:16.211Z,3.30
2018-02-16T13:46:44.535Z,2.57
2018-02-16T13:49:12.858Z,3.00
2018-02-16T13:51:41.169Z,4.53
2018-02-16T13:54:09.494Z,2.80
2018-02-16T13:56:38.571Z,4.83
2018-02-16T13:59:06.905Z,3.20
2018-02-16T14:01:35.212Z,3.87
2018-02-16T14:04:03.504Z,3.50
2018-02-16T14:06:31.808Z,3.30
2018-02-16T14:09:00.125Z,3.33
2018-02-16T14:11:28.420Z,4.03
2018-02-16T14:13:56.730Z,3.43
2018-02-16T14:16:25.081Z,4.90
2018-02-16T14:18:54.058Z,3.20
2018-02-16T14:21:22.358Z,5.53
2018-02-16T14:23:50.688Z,4.90
2018-02-16T14:26:19.024Z,3.43
2018-02-16T14:28:47.385Z,3.70
2018-02-16T14:31:17.152Z,4.10
2018-02-16T14:33:46.250Z,3.27
2018-02-16T14:36:14.544Z,3.23
2018-02-16T14:38:44.350Z,3.30
2018-02-16T14:41:12.646Z,3.00
2018-02-16T14:43:41.714Z,3.13
2018-02-16T14:46:10.074Z,3.63
2018-02-16T14:48:38.381Z,3.60
2018-02-16T14:51:06.715Z,2.53
2018-02-16T14:53:36.638Z,2.80
2018-02-16T14:56:05.749Z,3.77
2018-02-16T14:58:34.788Z,3.30
2018-02-16T15:01:03.128Z,3.03
2018-02-16T15:03:31.448Z,3.17
2018-02-16T15:05:59.739Z,4.70
2018-02-16T15:08:29.604Z,4.77
2018-02-16T15:10:57.905Z,4.30
2018-02-16T15:13:26.294Z,4.40
2018-02-16T15:15:55.323Z,3.70
2018-02-16T15:18:23.654Z,4.33
2018-02-16T15:20:51.954Z,2.33
2018-02-16T15:23:20.265Z,3.10
2018-02-16T15:25:48.594Z,2.93
2018-02-16T15:28:16.910Z,2.87
2018-02-16T15:30:45.264Z,2.97
2018-02-16T15:33:13.583Z,3.03
2018-02-16T15:35:41.899Z,2.97
2018-02-16T15:38:10.213Z,2.50
2018-02-16T15:40:38.564Z,3.80
2018-02-16T15:43:07.680Z,2.83
2018-02-16T15:45:36.124Z,3.27
2018-02-16T15:48:04.468Z,2.60
2018-02-16T15:50:32.775Z,2.50
2018-02-16T15:53:01.070Z,3.57
2018-02-16T15:55:29.354Z,3.17
2018-02-16T15:57:57.673Z,2.70
2018-02-16T16:00:25.976Z,2.90
2018-02-16T16:02:54.322Z,3.23
2018-02-16T16:05:22.630Z,3.83
2018-02-16T16:07:51.556Z,4.03
2018-02-16T16:10:19.886Z,2.63
2018-02-16T16:12:48.227Z,3.40
2018-02-16T16:15:16.546Z,3.20
2018-02-16T16:17:45.712Z,2.73
2018-02-16T16:20:14.026Z,3.10
2018-02-16T16:22:43.100Z,2.60
2018-02-16T16:25:11.589Z,2.37
2018-02-16T16:27:40.660Z,3.00
2018-02-16T16:30:08.952Z,3.10
2018-02-16T16:32:37.264Z,2.50
2018-02-16T16:35:05.577Z,2.43
2018-02-16T16:37:33.882Z,2.40
2018-02-16T16:40:02.289Z,2.73
2018-02-16T16:42:30.636Z,2.70
2018-02-16T16:44:58.999Z,3.30
2018-02-16T16:47:27.296Z,2.80
2018-02-16T16:49:55.614Z,3.10
2018-02-16T16:52:23.912Z,3.37
2018-02-16T16:54:52.244Z,3.33
2018-02-16T16:57:20.541Z,3.30
2018-02-16T16:59:48.853Z,2.70
2018-02-16T17:02:17.163Z,4.03
2018-02-16T17:04:46.219Z,3.70
2018-02-16T17:07:14.548Z,3.90
2018-02-16T17:09:43.623Z,2.60
2018-02-16T17:12:11.950Z,3.37
2018-02-16T17:14:40.283Z,2.77
2018-02-16T17:17:08.691Z,3.47
2018-02-16T17:19:37.773Z,4.70
2018-02-16T17:22:06.099Z,3.53
2018-02-16T17:24:34.437Z,3.40
2018-02-16T17:27:03.515Z,3.13
2018-02-16T17:29:31.825Z,4.13
2018-02-16T17:32:00.899Z,4.57
2018-02-16T17:34:29.211Z,4.37
2018-02-16T17:36:58.293Z,4.60
2018-02-16T17:39:26.619Z,4.23
2018-02-16T17:41:54.921Z,4.00
2018-02-16T17:44:23.221Z,4.23
2018-02-16T17:46:51.514Z,4.67
2018-02-16T17:49:19.817Z,4.17
2018-02-16T17:51:48.947Z,5.67
2018-02-16T17:54:17.259Z,4.10
2018-02-16T17:56:45.594Z,4.10
2018-02-16T17:59:13.903Z,3.60
2018-02-16T18:01:42.225Z,3.30
2018-02-16T18:04:10.544Z,3.63
2018-02-16T18:06:38.913Z,5.27
2018-02-16T18:09:08.133Z,5.07
2018-02-16T18:11:36.464Z,5.20
2018-02-16T18:14:06.280Z,4.73
2018-02-16T18:16:36.076Z,5.33
2018-02-16T18:19:04.392Z,4.47
2018-02-16T18:21:32.717Z,4.83
2018-02-16T18:24:01.037Z,5.70
2018-02-16T18:26:29.351Z,5.50
2018-02-16T18:28:58.458Z,6.20
2018-02-16T18:31:28.257Z,5.23
2018-02-16T18:33:57.347Z,6.60
2018-02-16T18:36:25.797Z,5.93
2018-02-16T18:38:54.124Z,5.30
2018-02-16T18:41:22.473Z,5.63
2018-02-16T18:43:50.805Z,5.60
2018-02-16T18:46:19.117Z,5.33
2018-02-16T18:48:47.441Z,6.03
2018-02-16T18:51:15.744Z,6.30
2018-02-16T18:53:44.836Z,6.50
2018-02-16T18:56:13.912Z,9.17
2018-02-16T18:58:42.265Z,9.17
2018-02-16T19:01:10.561Z,5.97
2018-02-16T19:03:38.903Z,4.57
2018-02-16T19:06:07.216Z,5.60
2018-02-16T19:08:35.535Z,5.70
2018-02-16T19:11:04.655Z,4.90
2018-02-16T19:13:33.740Z,5.23
2018-02-16T19:16:02.815Z,6.73
2018-02-16T19:18:31.137Z,7.30
2018-02-16T19:21:00.256Z,7.20
2018-02-16T19:23:28.576Z,7.90
2018-02-16T19:25:56.894Z,6.97
2018-02-16T19:28:26.012Z,5.97
2018-02-16T19:30:54.322Z,5.73
2018-02-16T19:33:22.643Z,5.27
2018-02-16T19:35:51.232Z,5.50
2018-02-16T19:38:19.590Z,5.77
2018-02-16T19:40:48.241Z,5.33
2018-02-16T19:43:16.607Z,5.43
2018-02-16T19:45:45.313Z,6.30
2018-02-16T19:48:13.679Z,7.30
2018-02-16T19:50:43.857Z,7.70
2018-02-16T19:53:12.194Z,7.37
2018-02-16T19:55:40.512Z,7.47
2018-02-16T19:58:08.828Z,7.27
2018-02-16T20:00:38.392Z,7.80
2018-02-16T20:03:07.546Z,6.43
2018-02-16T20:05:36.645Z,7.40
2018-02-16T20:08:05.713Z,4.87
2018-02-16T20:10:34.369Z,4.80
2018-02-16T20:13:03.100Z,5.10
2018-02-16T20:15:31.591Z,5.50
2018-02-16T20:18:01.663Z,5.67
2018-02-16T20:20:30.350Z,5.40
2018-02-16T20:22:59.017Z,5.70
2018-02-16T20:25:28.112Z,5.70
2018-02-16T20:27:58.324Z,5.80
2018-02-16T20:30:26.958Z,5.50
2018-02-16T20:32:55.743Z,6.27
2018-02-16T20:35:24.100Z,7.60
2018-02-16T20:37:53.197Z,6.33
2018-02-16T20:40:22.561Z,7.00
2018-02-16T20:42:52.042Z,7.43
2018-02-16T20:45:20.450Z,6.80
2018-02-16T20:47:49.114Z,6.93
2018-02-16T20:50:17.553Z,7.80
2018-02-16T20:52:46.679Z,6.63
2018-02-16T20:55:15.017Z,5.90
2018-02-16T20:57:43.325Z,6.97
2018-02-16T21:00:11.627Z,8.37
2018-02-16T21:02:40.702Z,7.30
2018-02-16T21:05:09.787Z,8.30
2018-02-16T21:07:38.128Z,9.60
2018-02-16T21:10:06.451Z,12.73
2018-02-16T21:12:34.803Z,13.50
2018-02-16T21:15:03.121Z,8.30
2018-02-16T21:17:31.429Z,7.50
2018-02-16T21:20:00.543Z,8.80
2018-02-16T21:22:28.872Z,7.23
2018-02-16T21:24:57.173Z,6.90
2018-02-16T21:27:25.493Z,7.87
2018-02-16T21:29:53.815Z,8.07
2018-02-16T21:32:22.121Z,8.30
2018-02-16T21:34:50.419Z,8.50
2018-02-16T21:37:19.567Z,9.40
2018-02-16T21:39:47.863Z,10.10
2018-02-16T21:42:16.162Z,9.73
2018-02-16T21:44:44.493Z,8.00
2018-02-16T21:47:12.809Z,8.37
2018-02-16T21:49:41.113Z,7.40
2018-02-16T21:52:10.212Z,7.17
2018-02-16T21:54:39.297Z,8.10
2018-02-16T21:57:07.607Z,6.90
2018-02-16T21:59:36.690Z,5.40
2018-02-16T22:02:05.751Z,7.20
2018-02-16T22:04:34.052Z,6.10
2018-02-16T22:07:02.366Z,7.07
2018-02-16T22:09:31.477Z,7.70
2018-02-16T22:12:00.022Z,7.50
2018-02-16T22:14:28.355Z,7.77
2018-02-16T22:16:56.744Z,7.73
2018-02-16T22:19:25.113Z,7.40
2018-02-16T22:21:53.411Z,7.83
2018-02-16T22:24:21.734Z,6.80
2018-02-16T22:26:50.061Z,8.40
2018-02-16T22:29:18.476Z,8.20
2018-02-16T22:31:46.968Z,8.77
2018-02-16T22:34:15.267Z,8.50
2018-02-16T22:36:43.736Z,8.60
2018-02-16T22:39:12.065Z,9.20
2018-02-16T22:41:41.156Z,8.30
2018-02-16T22:44:10.247Z,8.50
2018-02-16T22:46:39.318Z,7.77
2018-02-16T22:49:07.628Z,7.97
2018-02-16T22:51:36.706Z,8.80
2018-02-16T22:54:05.021Z,9.40
2018-02-16T22:56:34.113Z,9.50
2018-02-16T22:59:02.499Z,10.80
2018-02-16T23:01:30.777Z,9.73
2018-02-16T23:03:59.842Z,11.80
2018-02-16T23:06:28.177Z,8.90
2018-02-16T23:08:56.551Z,8.80
2018-02-16T23:11:25.616Z,8.90
2018-02-16T23:13:53.931Z,10.10
2018-02-16T23:16:23.008Z,9.60
2018-02-16T23:18:51.388Z,8.90
2018-02-16T23:21:19.712Z,8.40
2018-02-16T23:23:48.019Z,9.00
2018-02-16T23:26:16.317Z,8.53
2018-02-16T23:28:44.623Z,9.33
2018-02-16T23:31:12.926Z,9.83
2018-02-16T23:33:42.011Z,12.07
2018-02-16T23:36:10.326Z,10.43
2018-02-16T23:38:38.628Z,9.97
2018-02-16T23:41:06.919Z,9.07
2018-02-16T23:43:35.181Z,10.47
2018-02-16T23:46:04.277Z,8.27
2018-02-16T23:48:33.350Z,7.33
2018-02-16T23:51:01.674Z,9.27
2018-02-16T23:53:30.799Z,7.60
2018-02-16T23:55:59.140Z,7.70
2018-02-16T23:58:27.478Z,7.70
